Forsyth, Illinois
Current Conditions -  °F | °C
As of 12:54 PM on Monday 20 Oct 2014 (Local Time) from KDEC Reporting Station
Clear Clear  
Wind Chill: 67°   Ceiling: Unl
Heat Index: 67°   Visibility: 10mi
Dew Point: 47°   Wind: 12mph
Humidity: 49%   Direction: 300°WNW
Pressure: 29.91"   Gusts: 21mph
Location:  39.93°N, 88.95°W
Report Text: KDEC 201754Z 30010G18KT 10SM CLR 19/08 A2991 RMK AO2 SLP126 T01940083 10194 20111 58009
Loading
Personal Weather Stations






























Interactive Weather Map
Tropical Storm Tracking
New forecast layout! Learn more

10-Day Weather Forecast

Advertisements
Track Severe Weather on mobile